createdAt,value
2022-10-19T00:00:19.891Z,78.72
2022-10-19T00:02:46.498Z,78.95
2022-10-19T00:05:13.253Z,78.88
2022-10-19T00:07:39.914Z,78.80
2022-10-19T00:10:07.072Z,78.82
2022-10-19T00:12:35.099Z,78.84
2022-10-19T00:15:01.989Z,79.05
2022-10-19T00:17:28.700Z,78.97
2022-10-19T00:19:55.614Z,78.72
2022-10-19T00:22:22.506Z,78.87
2022-10-19T00:24:49.303Z,78.98
2022-10-19T00:27:16.738Z,78.82
2022-10-19T00:29:44.676Z,78.90
2022-10-19T00:32:12.004Z,78.76
2022-10-19T00:34:38.622Z,78.89
2022-10-19T00:37:05.261Z,78.92
2022-10-19T00:39:32.341Z,78.79
2022-10-19T00:41:59.148Z,78.72
2022-10-19T00:44:59.718Z,79.15
2022-10-19T00:47:26.916Z,78.78
2022-10-19T00:49:54.567Z,78.91
2022-10-19T00:52:23.828Z,79.07
2022-10-19T00:54:52.641Z,78.96
2022-10-19T00:57:19.586Z,79.06
2022-10-19T00:59:47.022Z,78.79
2022-10-19T01:02:15.081Z,78.80
2022-10-19T01:04:47.536Z,79.09
2022-10-19T01:07:14.850Z,79.16
2022-10-19T01:09:41.552Z,78.96
2022-10-19T01:12:22.666Z,78.75
2022-10-19T01:15:04.059Z,78.78
2022-10-19T01:17:44.544Z,78.82
2022-10-19T01:20:35.898Z,78.77
2022-10-19T01:23:31.230Z,78.72
2022-10-19T01:26:08.927Z,78.63
2022-10-19T01:28:49.146Z,78.58
2022-10-19T01:31:27.096Z,78.65
2022-10-19T01:34:00.590Z,78.96
2022-10-19T01:36:39.283Z,78.94
2022-10-19T01:39:10.615Z,78.71
2022-10-19T01:41:45.763Z,78.80
2022-10-19T01:44:17.635Z,78.90
2022-10-19T01:46:51.615Z,78.77
2022-10-19T01:49:22.422Z,78.70
2022-10-19T01:51:52.047Z,78.77
2022-10-19T01:54:21.357Z,78.67
2022-10-19T01:56:50.229Z,78.68
2022-10-19T01:59:18.958Z,78.64
2022-10-19T02:01:49.124Z,78.55
2022-10-19T02:04:18.696Z,78.62
2022-10-19T02:06:46.036Z,78.72
2022-10-19T02:09:18.103Z,78.68
2022-10-19T02:11:49.616Z,78.69
2022-10-19T02:14:22.599Z,78.49
2022-10-19T02:16:54.882Z,78.84
2022-10-19T02:21:54.308Z,78.64
2022-10-19T02:24:20.944Z,78.71
2022-10-19T02:26:47.708Z,78.62
2022-10-19T02:29:15.952Z,78.56
2022-10-19T02:31:43.511Z,78.50
2022-10-19T02:34:12.174Z,78.65
2022-10-19T02:36:39.012Z,78.72
2022-10-19T02:39:07.026Z,78.73
2022-10-19T02:41:41.882Z,78.58
2022-10-19T02:44:15.647Z,78.50
2022-10-19T02:46:46.059Z,78.70
2022-10-19T02:49:14.610Z,78.63
2022-10-19T02:51:57.635Z,78.49
2022-10-19T02:54:24.483Z,78.56
2022-10-19T02:56:51.199Z,78.67
2022-10-19T02:59:18.500Z,78.53
2022-10-19T03:01:45.106Z,78.74
2022-10-19T03:04:11.736Z,78.60
2022-10-19T03:06:39.737Z,78.62
2022-10-19T03:09:06.552Z,78.67
2022-10-19T03:11:34.078Z,78.69
2022-10-19T03:14:00.638Z,78.79
2022-10-19T03:16:27.234Z,78.64
2022-10-19T03:18:54.803Z,78.75
2022-10-19T03:21:21.476Z,78.55
2022-10-19T03:23:49.736Z,78.71
2022-10-19T03:26:17.677Z,78.75
2022-10-19T03:28:44.320Z,78.69
2022-10-19T03:31:11.296Z,79.02
2022-10-19T03:33:37.956Z,78.82
2022-10-19T03:36:20.600Z,78.60
2022-10-19T03:38:49.544Z,78.82
2022-10-19T03:41:16.022Z,78.87
2022-10-19T03:43:42.673Z,78.72
2022-10-19T03:46:10.711Z,78.86
2022-10-19T03:48:37.409Z,78.84
2022-10-19T03:51:06.445Z,79.00
2022-10-19T03:53:33.437Z,79.14
2022-10-19T03:56:06.551Z,79.33
2022-10-19T03:58:35.956Z,79.09
2022-10-19T04:01:07.587Z,79.30
2022-10-19T04:06:03.187Z,79.28
2022-10-19T04:08:30.150Z,79.31
2022-10-19T04:11:00.322Z,79.22
2022-10-19T04:13:28.805Z,79.30
2022-10-19T04:15:55.530Z,79.44
2022-10-19T04:18:22.172Z,79.46
2022-10-19T04:20:49.019Z,79.42
2022-10-19T04:25:42.313Z,79.48
2022-10-19T04:28:09.097Z,79.65
2022-10-19T04:30:37.094Z,79.89
2022-10-19T04:33:03.932Z,79.70
2022-10-19T04:35:30.581Z,79.58
2022-10-19T04:37:58.828Z,79.77
2022-10-19T04:40:25.813Z,79.63
2022-10-19T04:42:52.705Z,79.68
2022-10-19T04:45:19.432Z,79.56
2022-10-19T04:47:47.504Z,79.71
2022-10-19T04:50:14.295Z,79.77
2022-10-19T04:52:40.935Z,79.73
2022-10-19T04:55:08.284Z,79.41
2022-10-19T04:57:35.187Z,79.81
2022-10-19T05:00:02.587Z,79.98
2022-10-19T05:02:29.159Z,79.82
2022-10-19T05:04:57.135Z,79.89
2022-10-19T05:07:23.760Z,79.95
2022-10-19T05:09:50.383Z,79.87
2022-10-19T05:12:17.014Z,79.86
2022-10-19T05:14:43.711Z,79.72
2022-10-19T05:17:10.276Z,79.85
2022-10-19T05:19:36.911Z,79.82
2022-10-19T05:22:05.061Z,79.99
2022-10-19T05:24:32.603Z,79.83
2022-10-19T05:26:59.208Z,79.97
2022-10-19T05:29:26.043Z,80.02
2022-10-19T05:31:52.632Z,79.89
2022-10-19T05:34:19.549Z,79.87
2022-10-19T05:36:46.145Z,79.73
2022-10-19T05:39:16.308Z,79.74
2022-10-19T05:41:43.879Z,79.82
2022-10-19T05:44:14.222Z,80.00
2022-10-19T05:46:40.843Z,79.85
2022-10-19T05:49:07.497Z,79.88
2022-10-19T05:51:34.156Z,79.70
2022-10-19T05:54:00.718Z,79.77
2022-10-19T05:56:30.729Z,79.83
2022-10-19T05:58:58.785Z,80.12
2022-10-19T06:01:26.052Z,79.73
2022-10-19T06:03:54.423Z,79.85
2022-10-19T06:06:22.034Z,80.12
2022-10-19T06:08:49.348Z,79.96
2022-10-19T06:11:17.848Z,80.05
2022-10-19T06:13:47.605Z,80.08
2022-10-19T06:16:16.013Z,79.96
2022-10-19T06:18:43.672Z,79.91
2022-10-19T06:21:12.032Z,80.31
2022-10-19T06:23:39.212Z,80.41
2022-10-19T06:26:08.145Z,80.24
2022-10-19T06:28:34.914Z,80.60
2022-10-19T06:33:48.538Z,80.57
2022-10-19T06:36:19.044Z,80.61
2022-10-19T06:38:46.062Z,80.68
2022-10-19T06:41:12.808Z,80.70
2022-10-19T06:43:40.283Z,80.65
2022-10-19T06:46:10.204Z,80.95
2022-10-19T06:48:36.893Z,80.94
2022-10-19T06:51:06.358Z,80.98
2022-10-19T06:53:34.415Z,81.21
2022-10-19T06:56:02.713Z,81.20
2022-10-19T06:58:29.440Z,81.45
2022-10-19T07:00:57.244Z,81.29
2022-10-19T07:03:25.785Z,81.38
2022-10-19T07:05:53.428Z,81.42
2022-10-19T07:08:21.733Z,81.69
2022-10-19T07:10:55.349Z,81.75
2022-10-19T07:13:26.982Z,81.55
2022-10-19T07:15:59.791Z,81.74
2022-10-19T07:18:34.558Z,81.87
2022-10-19T07:21:03.263Z,81.89
2022-10-19T07:23:32.322Z,82.01
2022-10-19T07:26:03.980Z,82.41
2022-10-19T07:28:31.032Z,82.21
2022-10-19T07:30:57.764Z,82.13
2022-10-19T07:33:24.582Z,82.38
2022-10-19T07:35:59.400Z,82.45
2022-10-19T07:38:25.977Z,82.52
2022-10-19T07:40:59.362Z,82.55
2022-10-19T07:43:26.142Z,82.93
2022-10-19T07:45:58.651Z,82.67
2022-10-19T07:48:25.393Z,82.66
2022-10-19T07:50:53.411Z,82.67
2022-10-19T07:53:20.026Z,82.68
2022-10-19T07:55:46.671Z,83.13
2022-10-19T07:58:13.301Z,82.96
2022-10-19T08:03:43.736Z,83.30
2022-10-19T08:06:01.808Z,83.29
2022-10-19T08:08:28.668Z,83.48
2022-10-19T08:10:55.769Z,83.41
2022-10-19T08:13:22.416Z,83.49
2022-10-19T08:15:49.050Z,83.30
2022-10-19T08:18:16.908Z,83.39
2022-10-19T08:20:44.394Z,83.42
2022-10-19T08:23:12.356Z,83.35
2022-10-19T08:25:39.127Z,83.61
2022-10-19T08:28:05.686Z,83.59
2022-10-19T08:30:34.949Z,83.45
2022-10-19T08:33:01.774Z,83.70
2022-10-19T08:35:30.670Z,83.48
2022-10-19T08:37:58.651Z,83.77
2022-10-19T08:40:30.148Z,83.62
2022-10-19T08:43:02.330Z,83.19
2022-10-19T08:48:24.994Z,83.28
2022-10-19T08:50:53.021Z,83.55
2022-10-19T08:53:27.262Z,83.52
2022-10-19T08:56:05.849Z,83.35
2022-10-19T08:58:42.812Z,83.48
2022-10-19T09:01:16.630Z,83.61
2022-10-19T09:03:55.389Z,83.46
2022-10-19T09:06:29.261Z,83.62
2022-10-19T09:08:57.926Z,83.55
2022-10-19T09:11:29.852Z,83.53
2022-10-19T09:14:06.391Z,83.18
2022-10-19T09:16:35.027Z,83.20
2022-10-19T09:19:02.537Z,83.10
2022-10-19T09:21:46.072Z,83.00
2022-10-19T09:24:27.660Z,83.20
2022-10-19T09:26:58.159Z,82.79
2022-10-19T09:29:30.171Z,82.80
2022-10-19T09:32:00.386Z,83.09
2022-10-19T09:34:33.475Z,82.64
2022-10-19T09:37:00.278Z,82.79
2022-10-19T09:39:29.906Z,82.62
2022-10-19T09:42:00.055Z,82.47
2022-10-19T09:44:27.527Z,82.59
2022-10-19T09:47:03.695Z,82.36
2022-10-19T09:49:40.480Z,82.42
2022-10-19T09:52:23.551Z,81.98
2022-10-19T09:54:59.968Z,81.93
2022-10-19T09:57:28.039Z,81.46
2022-10-19T09:59:55.256Z,81.27
2022-10-19T10:02:28.668Z,81.06
2022-10-19T10:05:02.487Z,80.64
2022-10-19T10:07:35.519Z,80.44
2022-10-19T10:10:02.829Z,80.41
2022-10-19T10:12:30.912Z,80.04
2022-10-19T10:14:57.997Z,80.07
2022-10-19T10:17:30.479Z,80.06
2022-10-19T10:20:18.004Z,79.45
2022-10-19T10:22:52.794Z,79.45
2022-10-19T10:25:19.562Z,79.37
2022-10-19T10:27:57.327Z,78.90
2022-10-19T10:30:24.260Z,79.09
2022-10-19T10:32:54.388Z,78.70
2022-10-19T10:35:24.986Z,78.46
2022-10-19T10:37:52.980Z,78.29
2022-10-19T10:40:23.796Z,78.17
2022-10-19T10:42:52.812Z,77.99
2022-10-19T10:45:26.140Z,77.45
2022-10-19T10:47:53.864Z,77.17
2022-10-19T10:50:23.155Z,76.97
2022-10-19T10:52:58.441Z,76.34
2022-10-19T10:55:26.730Z,76.05
2022-10-19T10:58:02.354Z,76.04
2022-10-19T11:00:30.860Z,76.44
2022-10-19T11:03:06.572Z,75.96
2022-10-19T11:05:36.427Z,75.73
2022-10-19T11:08:08.016Z,75.60
2022-10-19T11:10:41.260Z,75.21
2022-10-19T11:13:15.958Z,74.96
2022-10-19T11:15:52.927Z,74.57
2022-10-19T11:18:23.723Z,74.24
2022-10-19T11:21:00.766Z,74.15
2022-10-19T11:23:40.351Z,74.17
2022-10-19T11:26:17.662Z,73.95
2022-10-19T11:28:55.908Z,74.15
2022-10-19T11:31:35.475Z,73.77
2022-10-19T11:34:08.864Z,73.11
2022-10-19T11:36:46.244Z,73.35
2022-10-19T11:39:26.524Z,73.33
2022-10-19T11:42:00.815Z,73.25
2022-10-19T11:44:39.038Z,72.92
2022-10-19T11:47:24.755Z,73.00
2022-10-19T11:49:59.764Z,72.96
2022-10-19T11:52:32.764Z,72.88
2022-10-19T11:55:14.757Z,72.60
2022-10-19T11:57:50.432Z,72.21
2022-10-19T12:00:40.985Z,72.20
2022-10-19T12:03:29.633Z,72.07
2022-10-19T12:06:09.234Z,72.21
2022-10-19T12:08:55.301Z,71.73
2022-10-19T12:11:45.787Z,71.39
2022-10-19T12:14:16.614Z,70.88
2022-10-19T12:16:47.361Z,70.91
2022-10-19T12:19:21.243Z,70.55
2022-10-19T12:21:49.991Z,70.53
2022-10-19T12:24:18.906Z,70.34
2022-10-19T12:26:47.643Z,70.55
2022-10-19T12:29:15.857Z,70.54
2022-10-19T12:31:43.420Z,70.32
2022-10-19T12:34:22.163Z,70.21
2022-10-19T12:36:52.864Z,70.41
2022-10-19T12:39:24.602Z,70.26
2022-10-19T12:42:00.737Z,69.88
2022-10-19T12:44:44.547Z,69.81
2022-10-19T12:47:15.553Z,69.37
2022-10-19T12:49:48.913Z,69.06
2022-10-19T12:52:34.082Z,69.10
2022-10-19T12:55:24.680Z,68.57
2022-10-19T12:57:59.209Z,68.48
2022-10-19T13:00:29.413Z,68.37
2022-10-19T13:03:00.645Z,68.51
2022-10-19T13:05:30.668Z,68.12
2022-10-19T13:07:58.221Z,68.24
2022-10-19T13:10:27.642Z,68.07
2022-10-19T13:12:55.334Z,67.76
2022-10-19T13:15:50.092Z,67.33
2022-10-19T13:19:07.101Z,67.52
2022-10-19T13:22:10.361Z,67.70
2022-10-19T13:24:37.596Z,67.70
2022-10-19T13:27:27.307Z,67.30
2022-10-19T13:29:54.572Z,67.14
2022-10-19T13:32:44.856Z,67.02
2022-10-19T13:35:38.926Z,67.07
2022-10-19T13:38:27.583Z,67.14
2022-10-19T13:41:05.049Z,66.93
2022-10-19T13:43:34.933Z,66.76
2022-10-19T13:46:07.776Z,66.68
2022-10-19T13:48:59.128Z,66.35
2022-10-19T13:51:32.688Z,66.31
2022-10-19T13:54:12.620Z,66.25
2022-10-19T13:56:52.088Z,66.24
2022-10-19T13:59:40.111Z,66.48
2022-10-19T14:02:46.214Z,66.36
2022-10-19T14:05:27.342Z,66.15
2022-10-19T14:08:06.911Z,66.23
2022-10-19T14:10:49.536Z,66.12
2022-10-19T14:13:23.676Z,66.00
2022-10-19T14:15:52.823Z,66.06
2022-10-19T14:18:25.371Z,66.15
2022-10-19T14:20:58.148Z,66.12
2022-10-19T14:23:27.131Z,66.05
2022-10-19T14:25:58.745Z,66.21
2022-10-19T14:28:26.007Z,66.25
2022-10-19T14:30:57.884Z,66.26
2022-10-19T14:33:25.951Z,66.27
2022-10-19T14:35:54.036Z,66.27
2022-10-19T14:38:25.839Z,66.75
2022-10-19T14:40:52.627Z,66.39
2022-10-19T14:43:22.963Z,66.46
2022-10-19T14:46:11.603Z,66.24
2022-10-19T14:48:40.340Z,66.69
2022-10-19T14:51:10.347Z,66.88
2022-10-19T14:53:40.281Z,67.05
2022-10-19T14:56:10.381Z,67.04
2022-10-19T14:58:44.192Z,67.19
2022-10-19T15:01:12.089Z,67.49
2022-10-19T15:03:43.725Z,67.26
2022-10-19T15:06:18.971Z,67.53
2022-10-19T15:08:49.021Z,67.85
2022-10-19T15:11:26.115Z,67.70
2022-10-19T15:14:05.265Z,67.79
2022-10-19T15:16:42.172Z,67.76
2022-10-19T15:19:17.319Z,68.03
2022-10-19T15:21:44.747Z,68.17
2022-10-19T15:24:24.294Z,67.83
2022-10-19T15:27:06.432Z,68.12
2022-10-19T15:29:36.990Z,68.20
2022-10-19T15:32:20.281Z,68.09
2022-10-19T15:34:47.368Z,68.22
2022-10-19T15:37:20.277Z,68.42
2022-10-19T15:39:47.470Z,68.63
2022-10-19T15:42:33.846Z,68.45
2022-10-19T15:45:02.538Z,68.49
2022-10-19T15:47:30.342Z,68.35
2022-10-19T15:49:59.486Z,68.54
2022-10-19T15:52:27.768Z,68.64
2022-10-19T15:54:56.636Z,68.83
2022-10-19T15:57:27.362Z,68.71
2022-10-19T15:59:58.694Z,68.81
2022-10-19T16:02:26.979Z,68.78
2022-10-19T16:04:54.176Z,69.25
2022-10-19T16:07:25.882Z,69.05
2022-10-19T16:09:52.939Z,69.08
2022-10-19T16:12:19.541Z,69.13
2022-10-19T16:14:50.148Z,69.34
2022-10-19T16:17:19.853Z,69.55
2022-10-19T16:19:49.429Z,69.35
2022-10-19T16:22:16.577Z,69.68
2022-10-19T16:24:43.677Z,69.49
2022-10-19T16:27:15.000Z,69.65
2022-10-19T16:29:42.328Z,70.00
2022-10-19T16:32:09.422Z,69.73
2022-10-19T16:34:36.303Z,69.87
2022-10-19T16:37:06.798Z,69.79
2022-10-19T16:39:34.274Z,69.90
2022-10-19T16:42:01.010Z,70.16
2022-10-19T16:44:27.623Z,69.99
2022-10-19T16:46:56.751Z,70.06
2022-10-19T16:49:23.319Z,69.95
2022-10-19T16:51:53.216Z,70.16
2022-10-19T16:54:26.471Z,70.29
2022-10-19T16:56:53.396Z,70.37
2022-10-19T16:59:20.077Z,70.03
2022-10-19T17:01:48.471Z,70.30
2022-10-19T17:04:17.354Z,70.32
2022-10-19T17:06:43.831Z,70.62
2022-10-19T17:11:58.506Z,70.75
2022-10-19T17:14:25.316Z,70.49
2022-10-19T17:16:51.975Z,70.62
2022-10-19T17:19:18.672Z,70.40
2022-10-19T17:21:45.287Z,70.69
2022-10-19T17:24:20.163Z,70.49
2022-10-19T17:26:49.628Z,70.61
2022-10-19T17:29:18.622Z,70.94
2022-10-19T17:31:46.233Z,70.67
2022-10-19T17:34:12.996Z,70.88
2022-10-19T17:36:42.165Z,70.71
2022-10-19T17:39:12.426Z,70.69
2022-10-19T17:41:39.046Z,70.68
2022-10-19T17:44:05.726Z,70.97
2022-10-19T17:46:35.411Z,70.84
2022-10-19T17:49:02.951Z,71.07
2022-10-19T17:51:35.246Z,70.86
2022-10-19T17:54:03.750Z,71.02
2022-10-19T17:56:30.636Z,70.96
2022-10-19T17:58:58.267Z,70.96
2022-10-19T18:01:25.608Z,70.86
2022-10-19T18:03:53.578Z,70.98
2022-10-19T18:06:21.592Z,71.29
2022-10-19T18:08:51.205Z,71.08
2022-10-19T18:11:20.187Z,71.39
2022-10-19T18:13:47.699Z,70.95
2022-10-19T18:16:17.364Z,70.85
2022-10-19T18:18:46.137Z,70.82
2022-10-19T18:21:15.328Z,71.28
2022-10-19T18:23:43.620Z,71.19
2022-10-19T18:26:12.879Z,71.39
2022-10-19T18:28:39.873Z,71.40
2022-10-19T18:31:10.876Z,71.46
2022-10-19T18:33:38.258Z,71.69
2022-10-19T18:36:09.097Z,71.44
2022-10-19T18:38:37.692Z,71.27
2022-10-19T18:41:05.757Z,71.46
2022-10-19T18:43:32.919Z,71.46
2022-10-19T18:46:00.600Z,71.67
2022-10-19T18:48:29.312Z,71.56
2022-10-19T18:50:56.329Z,71.97
2022-10-19T18:53:24.006Z,71.83
2022-10-19T18:55:58.269Z,71.74
2022-10-19T18:58:25.877Z,71.79
2022-10-19T19:01:03.489Z,72.08
2022-10-19T19:03:30.969Z,71.89
2022-10-19T19:06:01.573Z,71.97
2022-10-19T19:08:28.703Z,72.04
2022-10-19T19:10:55.683Z,71.79
2022-10-19T19:13:26.155Z,72.06
2022-10-19T19:15:59.992Z,71.72
2022-10-19T19:18:26.947Z,72.28
2022-10-19T19:20:53.638Z,72.17
2022-10-19T19:23:20.517Z,72.51
2022-10-19T19:25:48.538Z,72.30
2022-10-19T19:28:15.196Z,72.09
2022-10-19T19:30:44.856Z,72.62
2022-10-19T19:33:12.015Z,72.37
2022-10-19T19:35:42.516Z,72.29
2022-10-19T19:38:09.650Z,72.37
2022-10-19T19:40:44.821Z,72.37
2022-10-19T19:43:13.915Z,72.83
2022-10-19T19:45:43.240Z,72.63
2022-10-19T19:48:11.338Z,72.79
2022-10-19T19:50:38.407Z,72.92
2022-10-19T19:53:05.180Z,72.61
2022-10-19T19:55:38.116Z,72.65
2022-10-19T19:58:05.744Z,72.77
2022-10-19T20:00:32.656Z,72.98
2022-10-19T20:03:00.426Z,72.82
2022-10-19T20:05:28.502Z,73.28
2022-10-19T20:07:55.433Z,73.08
2022-10-19T20:10:22.388Z,73.19
2022-10-19T20:12:50.044Z,73.19
2022-10-19T20:15:18.061Z,72.99
2022-10-19T20:17:45.317Z,72.98
2022-10-19T20:20:13.576Z,73.01
2022-10-19T20:22:46.372Z,73.51
2022-10-19T20:25:12.985Z,73.20
2022-10-19T20:27:39.699Z,73.35
2022-10-19T20:30:07.862Z,73.60
2022-10-19T20:32:34.723Z,73.43
2022-10-19T20:35:01.795Z,73.38
2022-10-19T20:37:37.572Z,73.73
2022-10-19T20:40:08.893Z,73.76
2022-10-19T20:42:37.378Z,73.49
2022-10-19T20:45:05.615Z,73.98
2022-10-19T20:47:32.478Z,73.74
2022-10-19T20:49:59.887Z,73.84
2022-10-19T20:52:26.517Z,73.58
2022-10-19T20:54:53.134Z,73.94
2022-10-19T20:57:21.197Z,73.80
2022-10-19T20:59:49.259Z,73.98
2022-10-19T21:02:16.377Z,74.08
2022-10-19T21:04:42.994Z,74.10
2022-10-19T21:07:09.669Z,74.44
2022-10-19T21:09:36.326Z,74.18
2022-10-19T21:12:03.172Z,74.58
2022-10-19T21:14:31.726Z,74.14
2022-10-19T21:16:58.874Z,74.42
2022-10-19T21:19:27.269Z,74.42
2022-10-19T21:21:56.162Z,74.70
2022-10-19T21:24:24.144Z,74.77
2022-10-19T21:29:19.404Z,74.29
2022-10-19T21:31:49.521Z,74.45
2022-10-19T21:34:18.427Z,74.42
2022-10-19T21:36:44.927Z,74.80
2022-10-19T21:39:11.547Z,74.59
2022-10-19T21:41:38.357Z,74.46
2022-10-19T21:44:05.274Z,74.76
2022-10-19T21:46:31.951Z,74.66
2022-10-19T21:48:59.928Z,74.99
2022-10-19T21:51:34.671Z,74.95
2022-10-19T21:54:01.608Z,74.88
2022-10-19T21:56:28.587Z,75.37
2022-10-19T21:58:55.656Z,75.27
2022-10-19T22:01:25.320Z,75.30
2022-10-19T22:03:56.172Z,75.22
2022-10-19T22:06:25.316Z,75.05
2022-10-19T22:08:52.527Z,75.18
2022-10-19T22:11:19.391Z,75.23
2022-10-19T22:13:46.187Z,75.23
2022-10-19T22:16:15.624Z,75.44
2022-10-19T22:18:43.171Z,75.36
2022-10-19T22:21:12.635Z,75.47
2022-10-19T22:23:40.835Z,75.60
2022-10-19T22:26:14.555Z,75.65
2022-10-19T22:28:41.636Z,75.78
2022-10-19T22:31:08.699Z,75.41
2022-10-19T22:33:36.220Z,75.24
2022-10-19T22:36:06.305Z,75.78
2022-10-19T22:38:34.287Z,75.72
2022-10-19T22:41:57.449Z,75.99
2022-10-19T22:44:25.415Z,75.57
2022-10-19T22:46:52.135Z,75.63
2022-10-19T22:49:18.823Z,75.94
2022-10-19T22:51:45.460Z,76.07
2022-10-19T22:54:12.479Z,75.96
2022-10-19T22:56:39.702Z,75.99
2022-10-19T22:59:06.938Z,76.19
2022-10-19T23:01:35.084Z,76.17
2022-10-19T23:04:02.000Z,76.24
2022-10-19T23:06:28.612Z,75.92
2022-10-19T23:08:55.401Z,76.07
2022-10-19T23:11:22.716Z,76.23
2022-10-19T23:13:49.477Z,75.97
2022-10-19T23:16:16.237Z,76.18
2022-10-19T23:18:44.390Z,76.42
2022-10-19T23:21:12.965Z,76.40
2022-10-19T23:23:40.034Z,76.28
2022-10-19T23:26:09.735Z,76.28
2022-10-19T23:28:38.749Z,76.43
2022-10-19T23:31:08.057Z,76.23
2022-10-19T23:33:35.234Z,76.39
2022-10-19T23:36:05.504Z,76.44
2022-10-19T23:38:32.326Z,76.59
2022-10-19T23:40:58.968Z,76.41
2022-10-19T23:43:25.615Z,76.52
2022-10-19T23:45:52.232Z,76.71
2022-10-19T23:48:18.912Z,76.65
2022-10-19T23:50:45.641Z,76.74
2022-10-19T23:53:13.608Z,76.60
2022-10-19T23:55:40.225Z,76.84
2022-10-19T23:58:07.440Z,76.89
